sensor_id;sensor_type;location;lat;lon;timestamp;P1;durP1;ratioP1;P2;durP2;ratioP2
14766;SDS011;7475;53.558;9.970;2024-02-28T00:01:36;27.75;;;22.92;;
14766;SDS011;7475;53.558;9.970;2024-02-28T00:04:01;25.38;;;21.70;;
14766;SDS011;7475;53.558;9.970;2024-02-28T00:06:27;26.98;;;21.55;;
14766;SDS011;7475;53.558;9.970;2024-02-28T00:08:52;28.98;;;24.15;;
14766;SDS011;7475;53.558;9.970;2024-02-28T00:11:19;28.45;;;23.63;;
14766;SDS011;7475;53.558;9.970;2024-02-28T00:13:45;31.15;;;23.60;;
14766;SDS011;7475;53.558;9.970;2024-02-28T00:16:11;28.60;;;23.58;;
14766;SDS011;7475;53.558;9.970;2024-02-28T00:18:36;27.88;;;23.27;;
14766;SDS011;7475;53.558;9.970;2024-02-28T00:21:08;27.70;;;23.30;;
14766;SDS011;7475;53.558;9.970;2024-02-28T00:23:33;26.13;;;21.73;;
14766;SDS011;7475;53.558;9.970;2024-02-28T00:26:01;27.95;;;22.73;;
14766;SDS011;7475;53.558;9.970;2024-02-28T00:28:27;26.95;;;23.45;;
14766;SDS011;7475;53.558;9.970;2024-02-28T00:30:52;27.85;;;23.08;;
14766;SDS011;7475;53.558;9.970;2024-02-28T00:33:18;26.30;;;21.67;;
14766;SDS011;7475;53.558;9.970;2024-02-28T00:35:43;28.55;;;23.45;;
14766;SDS011;7475;53.558;9.970;2024-02-28T00:38:08;30.67;;;24.57;;
14766;SDS011;7475;53.558;9.970;2024-02-28T00:40:34;25.80;;;21.75;;
14766;SDS011;7475;53.558;9.970;2024-02-28T00:42:59;26.85;;;21.70;;
14766;SDS011;7475;53.558;9.970;2024-02-28T00:45:24;29.77;;;23.92;;
14766;SDS011;7475;53.558;9.970;2024-02-28T00:47:50;28.20;;;23.70;;
14766;SDS011;7475;53.558;9.970;2024-02-28T00:50:15;30.73;;;23.80;;
14766;SDS011;7475;53.558;9.970;2024-02-28T00:52:40;30.45;;;24.13;;
14766;SDS011;7475;53.558;9.970;2024-02-28T00:55:06;31.92;;;24.95;;
14766;SDS011;7475;53.558;9.970;2024-02-28T00:57:32;28.75;;;24.13;;
14766;SDS011;7475;53.558;9.970;2024-02-28T00:59:57;29.50;;;24.23;;
14766;SDS011;7475;53.558;9.970;2024-02-28T01:02:22;30.23;;;24.17;;
14766;SDS011;7475;53.558;9.970;2024-02-28T01:04:48;31.27;;;23.42;;
14766;SDS011;7475;53.558;9.970;2024-02-28T01:07:13;29.80;;;23.40;;
14766;SDS011;7475;53.558;9.970;2024-02-28T01:09:38;29.93;;;24.27;;
14766;SDS011;7475;53.558;9.970;2024-02-28T01:12:04;27.87;;;22.53;;
14766;SDS011;7475;53.558;9.970;2024-02-28T01:14:30;27.10;;;22.30;;
14766;SDS011;7475;53.558;9.970;2024-02-28T01:16:55;29.33;;;23.15;;
14766;SDS011;7475;53.558;9.970;2024-02-28T01:19:20;29.93;;;22.63;;
14766;SDS011;7475;53.558;9.970;2024-02-28T01:21:45;29.73;;;23.23;;
14766;SDS011;7475;53.558;9.970;2024-02-28T01:24:11;29.40;;;22.97;;
14766;SDS011;7475;53.558;9.970;2024-02-28T01:26:36;29.10;;;23.08;;
14766;SDS011;7475;53.558;9.970;2024-02-28T01:29:02;29.50;;;23.37;;
14766;SDS011;7475;53.558;9.970;2024-02-28T01:31:28;26.42;;;21.50;;
14766;SDS011;7475;53.558;9.970;2024-02-28T01:33:53;28.23;;;21.80;;
14766;SDS011;7475;53.558;9.970;2024-02-28T01:36:19;29.33;;;22.10;;
14766;SDS011;7475;53.558;9.970;2024-02-28T01:38:44;28.50;;;21.20;;
14766;SDS011;7475;53.558;9.970;2024-02-28T01:41:10;30.27;;;21.15;;
14766;SDS011;7475;53.558;9.970;2024-02-28T01:43:35;29.67;;;22.33;;
14766;SDS011;7475;53.558;9.970;2024-02-28T01:46:01;31.65;;;22.38;;
14766;SDS011;7475;53.558;9.970;2024-02-28T01:48:30;30.57;;;22.40;;
14766;SDS011;7475;53.558;9.970;2024-02-28T01:50:56;27.48;;;21.70;;
14766;SDS011;7475;53.558;9.970;2024-02-28T01:53:22;28.20;;;20.92;;
14766;SDS011;7475;53.558;9.970;2024-02-28T01:55:47;29.60;;;22.10;;
14766;SDS011;7475;53.558;9.970;2024-02-28T01:58:13;27.17;;;20.73;;
14766;SDS011;7475;53.558;9.970;2024-02-28T02:00:38;26.10;;;20.95;;
14766;SDS011;7475;53.558;9.970;2024-02-28T02:03:04;28.90;;;20.73;;
14766;SDS011;7475;53.558;9.970;2024-02-28T02:05:30;27.27;;;20.75;;
14766;SDS011;7475;53.558;9.970;2024-02-28T02:07:58;25.75;;;19.73;;
14766;SDS011;7475;53.558;9.970;2024-02-28T02:10:25;26.13;;;19.43;;
14766;SDS011;7475;53.558;9.970;2024-02-28T02:12:50;23.20;;;18.58;;
14766;SDS011;7475;53.558;9.970;2024-02-28T02:15:16;25.60;;;20.25;;
14766;SDS011;7475;53.558;9.970;2024-02-28T02:17:41;26.27;;;20.23;;
14766;SDS011;7475;53.558;9.970;2024-02-28T02:20:07;25.42;;;19.98;;
14766;SDS011;7475;53.558;9.970;2024-02-28T02:22:39;27.63;;;20.45;;
14766;SDS011;7475;53.558;9.970;2024-02-28T02:25:05;26.33;;;19.70;;
14766;SDS011;7475;53.558;9.970;2024-02-28T02:27:31;26.33;;;20.00;;
14766;SDS011;7475;53.558;9.970;2024-02-28T02:29:56;26.37;;;18.77;;
14766;SDS011;7475;53.558;9.970;2024-02-28T02:32:21;26.75;;;20.17;;
14766;SDS011;7475;53.558;9.970;2024-02-28T02:34:47;25.73;;;19.20;;
14766;SDS011;7475;53.558;9.970;2024-02-28T02:37:12;24.43;;;18.80;;
14766;SDS011;7475;53.558;9.970;2024-02-28T02:39:37;26.90;;;19.80;;
14766;SDS011;7475;53.558;9.970;2024-02-28T02:42:03;25.47;;;19.30;;
14766;SDS011;7475;53.558;9.970;2024-02-28T02:44:28;27.30;;;19.50;;
14766;SDS011;7475;53.558;9.970;2024-02-28T02:46:53;25.07;;;18.17;;
14766;SDS011;7475;53.558;9.970;2024-02-28T02:49:19;28.17;;;19.40;;
14766;SDS011;7475;53.558;9.970;2024-02-28T02:51:44;27.63;;;19.00;;
14766;SDS011;7475;53.558;9.970;2024-02-28T02:54:10;26.97;;;18.93;;
14766;SDS011;7475;53.558;9.970;2024-02-28T02:56:35;29.40;;;19.37;;
14766;SDS011;7475;53.558;9.970;2024-02-28T02:59:01;27.23;;;18.97;;
14766;SDS011;7475;53.558;9.970;2024-02-28T03:01:27;25.37;;;18.00;;
14766;SDS011;7475;53.558;9.970;2024-02-28T03:03:52;24.20;;;17.43;;
14766;SDS011;7475;53.558;9.970;2024-02-28T03:06:17;24.70;;;17.77;;
14766;SDS011;7475;53.558;9.970;2024-02-28T03:08:43;28.53;;;18.83;;
14766;SDS011;7475;53.558;9.970;2024-02-28T03:11:08;24.53;;;18.47;;
14766;SDS011;7475;53.558;9.970;2024-02-28T03:13:34;27.53;;;17.63;;
14766;SDS011;7475;53.558;9.970;2024-02-28T03:15:59;24.10;;;17.20;;
14766;SDS011;7475;53.558;9.970;2024-02-28T03:18:24;23.43;;;16.43;;
14766;SDS011;7475;53.558;9.970;2024-02-28T03:20:50;24.92;;;16.88;;
14766;SDS011;7475;53.558;9.970;2024-02-28T03:23:15;22.40;;;16.13;;
14766;SDS011;7475;53.558;9.970;2024-02-28T03:25:41;25.33;;;16.80;;
14766;SDS011;7475;53.558;9.970;2024-02-28T03:28:06;23.57;;;16.77;;
14766;SDS011;7475;53.558;9.970;2024-02-28T03:30:31;25.13;;;17.50;;
14766;SDS011;7475;53.558;9.970;2024-02-28T03:32:57;25.77;;;17.47;;
14766;SDS011;7475;53.558;9.970;2024-02-28T03:35:22;22.53;;;15.53;;
14766;SDS011;7475;53.558;9.970;2024-02-28T03:37:47;22.57;;;16.50;;
14766;SDS011;7475;53.558;9.970;2024-02-28T03:40:13;23.77;;;16.73;;
14766;SDS011;7475;53.558;9.970;2024-02-28T03:42:39;25.30;;;17.17;;
14766;SDS011;7475;53.558;9.970;2024-02-28T03:45:05;23.50;;;17.10;;
14766;SDS011;7475;53.558;9.970;2024-02-28T03:47:31;25.57;;;17.90;;
14766;SDS011;7475;53.558;9.970;2024-02-28T03:49:56;22.93;;;16.87;;
14766;SDS011;7475;53.558;9.970;2024-02-28T03:52:22;24.73;;;17.55;;
14766;SDS011;7475;53.558;9.970;2024-02-28T03:54:48;25.37;;;17.70;;
14766;SDS011;7475;53.558;9.970;2024-02-28T03:57:13;26.20;;;17.73;;
14766;SDS011;7475;53.558;9.970;2024-02-28T03:59:40;24.70;;;17.07;;
14766;SDS011;7475;53.558;9.970;2024-02-28T04:02:06;23.37;;;16.93;;
14766;SDS011;7475;53.558;9.970;2024-02-28T04:04:31;25.17;;;18.20;;
14766;SDS011;7475;53.558;9.970;2024-02-28T04:06:57;24.40;;;16.90;;
14766;SDS011;7475;53.558;9.970;2024-02-28T04:09:22;26.27;;;17.43;;
14766;SDS011;7475;53.558;9.970;2024-02-28T04:11:47;24.10;;;17.83;;
14766;SDS011;7475;53.558;9.970;2024-02-28T04:14:13;26.90;;;17.93;;
14766;SDS011;7475;53.558;9.970;2024-02-28T04:16:42;25.53;;;17.80;;
14766;SDS011;7475;53.558;9.970;2024-02-28T04:19:11;25.53;;;18.10;;
14766;SDS011;7475;53.558;9.970;2024-02-28T04:21:37;25.02;;;18.05;;
14766;SDS011;7475;53.558;9.970;2024-02-28T04:24:03;25.80;;;18.05;;
14766;SDS011;7475;53.558;9.970;2024-02-28T04:26:29;24.05;;;16.08;;
14766;SDS011;7475;53.558;9.970;2024-02-28T04:28:54;26.07;;;16.97;;
14766;SDS011;7475;53.558;9.970;2024-02-28T04:31:20;23.85;;;16.90;;
14766;SDS011;7475;53.558;9.970;2024-02-28T04:33:45;24.55;;;16.38;;
14766;SDS011;7475;53.558;9.970;2024-02-28T04:36:10;25.65;;;17.80;;
14766;SDS011;7475;53.558;9.970;2024-02-28T04:38:35;23.60;;;17.10;;
14766;SDS011;7475;53.558;9.970;2024-02-28T04:41:01;25.08;;;16.67;;
14766;SDS011;7475;53.558;9.970;2024-02-28T04:43:27;23.37;;;17.30;;
14766;SDS011;7475;53.558;9.970;2024-02-28T04:45:52;23.63;;;16.70;;
14766;SDS011;7475;53.558;9.970;2024-02-28T04:48:17;24.38;;;18.00;;
14766;SDS011;7475;53.558;9.970;2024-02-28T04:50:43;25.07;;;17.13;;
14766;SDS011;7475;53.558;9.970;2024-02-28T04:53:08;26.00;;;18.35;;
14766;SDS011;7475;53.558;9.970;2024-02-28T04:55:33;25.25;;;18.38;;
14766;SDS011;7475;53.558;9.970;2024-02-28T04:57:59;25.92;;;17.48;;
14766;SDS011;7475;53.558;9.970;2024-02-28T05:00:24;25.73;;;18.83;;
14766;SDS011;7475;53.558;9.970;2024-02-28T05:02:49;24.65;;;17.23;;
14766;SDS011;7475;53.558;9.970;2024-02-28T05:05:15;26.13;;;17.73;;
14766;SDS011;7475;53.558;9.970;2024-02-28T05:07:40;23.48;;;17.55;;
14766;SDS011;7475;53.558;9.970;2024-02-28T05:10:05;27.00;;;18.20;;
14766;SDS011;7475;53.558;9.970;2024-02-28T05:12:31;25.10;;;17.27;;
14766;SDS011;7475;53.558;9.970;2024-02-28T05:14:57;28.77;;;18.07;;
14766;SDS011;7475;53.558;9.970;2024-02-28T05:17:22;25.90;;;18.13;;
14766;SDS011;7475;53.558;9.970;2024-02-28T05:19:47;26.47;;;17.67;;
14766;SDS011;7475;53.558;9.970;2024-02-28T05:22:13;24.23;;;16.43;;
14766;SDS011;7475;53.558;9.970;2024-02-28T05:24:38;23.23;;;16.35;;
14766;SDS011;7475;53.558;9.970;2024-02-28T05:27:04;25.77;;;17.67;;
14766;SDS011;7475;53.558;9.970;2024-02-28T05:29:29;24.52;;;17.27;;
14766;SDS011;7475;53.558;9.970;2024-02-28T05:31:54;26.53;;;18.00;;
14766;SDS011;7475;53.558;9.970;2024-02-28T05:34:20;23.63;;;17.80;;
14766;SDS011;7475;53.558;9.970;2024-02-28T05:36:45;26.60;;;18.05;;
14766;SDS011;7475;53.558;9.970;2024-02-28T05:39:10;26.77;;;17.73;;
14766;SDS011;7475;53.558;9.970;2024-02-28T05:41:36;28.17;;;18.50;;
14766;SDS011;7475;53.558;9.970;2024-02-28T05:44:01;27.47;;;19.07;;
14766;SDS011;7475;53.558;9.970;2024-02-28T05:46:26;23.53;;;17.60;;
14766;SDS011;7475;53.558;9.970;2024-02-28T05:48:52;26.07;;;17.90;;
14766;SDS011;7475;53.558;9.970;2024-02-28T05:51:17;28.67;;;19.55;;
14766;SDS011;7475;53.558;9.970;2024-02-28T05:53:42;26.50;;;18.27;;
14766;SDS011;7475;53.558;9.970;2024-02-28T05:56:08;27.70;;;18.98;;
14766;SDS011;7475;53.558;9.970;2024-02-28T05:58:45;26.83;;;18.65;;
14766;SDS011;7475;53.558;9.970;2024-02-28T06:01:12;23.90;;;17.33;;
14766;SDS011;7475;53.558;9.970;2024-02-28T06:03:40;25.42;;;18.73;;
14766;SDS011;7475;53.558;9.970;2024-02-28T06:06:05;23.88;;;18.27;;
14766;SDS011;7475;53.558;9.970;2024-02-28T06:08:32;25.33;;;18.70;;
14766;SDS011;7475;53.558;9.970;2024-02-28T06:10:58;21.97;;;16.27;;
14766;SDS011;7475;53.558;9.970;2024-02-28T06:13:23;26.15;;;17.38;;
14766;SDS011;7475;53.558;9.970;2024-02-28T06:15:48;21.95;;;16.45;;
14766;SDS011;7475;53.558;9.970;2024-02-28T06:18:14;22.85;;;16.92;;
14766;SDS011;7475;53.558;9.970;2024-02-28T06:20:39;41.08;;;19.30;;
14766;SDS011;7475;53.558;9.970;2024-02-28T06:23:05;27.07;;;15.60;;
14766;SDS011;7475;53.558;9.970;2024-02-28T06:25:30;20.45;;;13.52;;
14766;SDS011;7475;53.558;9.970;2024-02-28T06:27:58;22.27;;;15.17;;
14766;SDS011;7475;53.558;9.970;2024-02-28T06:30:24;21.47;;;13.10;;
14766;SDS011;7475;53.558;9.970;2024-02-28T06:32:50;18.70;;;13.43;;
14766;SDS011;7475;53.558;9.970;2024-02-28T06:35:15;27.80;;;14.73;;
14766;SDS011;7475;53.558;9.970;2024-02-28T06:37:41;23.58;;;13.82;;
14766;SDS011;7475;53.558;9.970;2024-02-28T06:40:08;19.15;;;12.55;;
14766;SDS011;7475;53.558;9.970;2024-02-28T06:42:36;17.75;;;13.50;;
14766;SDS011;7475;53.558;9.970;2024-02-28T06:45:02;17.53;;;13.13;;
14766;SDS011;7475;53.558;9.970;2024-02-28T06:47:28;17.27;;;12.43;;
14766;SDS011;7475;53.558;9.970;2024-02-28T06:49:54;25.88;;;13.40;;
14766;SDS011;7475;53.558;9.970;2024-02-28T06:52:19;20.70;;;12.90;;
14766;SDS011;7475;53.558;9.970;2024-02-28T06:54:44;18.07;;;13.07;;
14766;SDS011;7475;53.558;9.970;2024-02-28T06:57:10;21.27;;;13.30;;
14766;SDS011;7475;53.558;9.970;2024-02-28T06:59:36;18.50;;;12.55;;
14766;SDS011;7475;53.558;9.970;2024-02-28T07:02:01;18.35;;;13.02;;
14766;SDS011;7475;53.558;9.970;2024-02-28T07:04:27;19.13;;;12.90;;
14766;SDS011;7475;53.558;9.970;2024-02-28T07:06:52;20.70;;;12.68;;
14766;SDS011;7475;53.558;9.970;2024-02-28T07:09:17;19.30;;;11.97;;
14766;SDS011;7475;53.558;9.970;2024-02-28T07:11:43;23.40;;;13.20;;
14766;SDS011;7475;53.558;9.970;2024-02-28T07:14:08;17.47;;;11.97;;
14766;SDS011;7475;53.558;9.970;2024-02-28T07:16:33;19.23;;;12.35;;
14766;SDS011;7475;53.558;9.970;2024-02-28T07:19:00;20.88;;;14.68;;
14766;SDS011;7475;53.558;9.970;2024-02-28T07:21:25;23.42;;;12.88;;
14766;SDS011;7475;53.558;9.970;2024-02-28T07:23:51;25.50;;;13.48;;
14766;SDS011;7475;53.558;9.970;2024-02-28T07:26:16;21.52;;;14.15;;
14766;SDS011;7475;53.558;9.970;2024-02-28T07:28:42;21.15;;;13.68;;
14766;SDS011;7475;53.558;9.970;2024-02-28T07:31:07;22.30;;;11.95;;
14766;SDS011;7475;53.558;9.970;2024-02-28T07:33:39;24.02;;;13.02;;
14766;SDS011;7475;53.558;9.970;2024-02-28T07:36:05;19.65;;;13.27;;
14766;SDS011;7475;53.558;9.970;2024-02-28T07:38:31;28.90;;;14.95;;
14766;SDS011;7475;53.558;9.970;2024-02-28T07:40:56;16.20;;;11.70;;
14766;SDS011;7475;53.558;9.970;2024-02-28T07:43:21;18.23;;;12.75;;
14766;SDS011;7475;53.558;9.970;2024-02-28T07:45:47;19.38;;;13.20;;
14766;SDS011;7475;53.558;9.970;2024-02-28T07:48:12;16.63;;;12.30;;
14766;SDS011;7475;53.558;9.970;2024-02-28T07:50:37;18.40;;;13.02;;
14766;SDS011;7475;53.558;9.970;2024-02-28T07:53:03;22.38;;;13.40;;
14766;SDS011;7475;53.558;9.970;2024-02-28T07:55:29;22.25;;;16.80;;
14766;SDS011;7475;53.558;9.970;2024-02-28T07:57:54;20.50;;;14.88;;
14766;SDS011;7475;53.558;9.970;2024-02-28T08:00:19;18.42;;;14.60;;
14766;SDS011;7475;53.558;9.970;2024-02-28T08:02:45;20.60;;;15.07;;
14766;SDS011;7475;53.558;9.970;2024-02-28T08:05:11;19.92;;;15.52;;
14766;SDS011;7475;53.558;9.970;2024-02-28T08:07:38;28.95;;;19.88;;
14766;SDS011;7475;53.558;9.970;2024-02-28T08:10:03;22.13;;;16.50;;
14766;SDS011;7475;53.558;9.970;2024-02-28T08:12:30;23.88;;;16.50;;
14766;SDS011;7475;53.558;9.970;2024-02-28T08:14:56;22.10;;;16.35;;
14766;SDS011;7475;53.558;9.970;2024-02-28T08:17:21;24.88;;;17.23;;
14766;SDS011;7475;53.558;9.970;2024-02-28T08:19:46;24.58;;;18.15;;
14766;SDS011;7475;53.558;9.970;2024-02-28T08:22:12;22.67;;;17.67;;
14766;SDS011;7475;53.558;9.970;2024-02-28T08:24:37;22.30;;;16.63;;
14766;SDS011;7475;53.558;9.970;2024-02-28T08:27:02;24.85;;;18.67;;
14766;SDS011;7475;53.558;9.970;2024-02-28T08:29:28;23.58;;;17.90;;
14766;SDS011;7475;53.558;9.970;2024-02-28T08:31:53;22.83;;;18.17;;
14766;SDS011;7475;53.558;9.970;2024-02-28T08:34:19;28.15;;;20.27;;
14766;SDS011;7475;53.558;9.970;2024-02-28T08:36:44;24.50;;;18.45;;
14766;SDS011;7475;53.558;9.970;2024-02-28T08:39:10;24.35;;;19.60;;
14766;SDS011;7475;53.558;9.970;2024-02-28T08:41:36;25.15;;;20.55;;
14766;SDS011;7475;53.558;9.970;2024-02-28T08:44:03;24.55;;;19.88;;
14766;SDS011;7475;53.558;9.970;2024-02-28T08:46:28;22.20;;;18.85;;
14766;SDS011;7475;53.558;9.970;2024-02-28T08:48:54;23.90;;;19.65;;
14766;SDS011;7475;53.558;9.970;2024-02-28T08:51:19;24.08;;;20.15;;
14766;SDS011;7475;53.558;9.970;2024-02-28T08:53:44;27.02;;;20.08;;
14766;SDS011;7475;53.558;9.970;2024-02-28T08:56:10;25.42;;;21.38;;
14766;SDS011;7475;53.558;9.970;2024-02-28T08:58:35;24.88;;;21.23;;
14766;SDS011;7475;53.558;9.970;2024-02-28T09:01:02;25.23;;;21.08;;
14766;SDS011;7475;53.558;9.970;2024-02-28T09:03:29;23.17;;;20.30;;
14766;SDS011;7475;53.558;9.970;2024-02-28T09:05:54;23.42;;;20.17;;
14766;SDS011;7475;53.558;9.970;2024-02-28T09:08:19;25.58;;;21.27;;
14766;SDS011;7475;53.558;9.970;2024-02-28T09:10:45;23.77;;;19.85;;
14766;SDS011;7475;53.558;9.970;2024-02-28T09:13:11;21.92;;;19.20;;
14766;SDS011;7475;53.558;9.970;2024-02-28T09:15:37;22.77;;;18.73;;
14766;SDS011;7475;53.558;9.970;2024-02-28T09:18:02;21.15;;;18.45;;
14766;SDS011;7475;53.558;9.970;2024-02-28T09:20:28;21.75;;;19.33;;
14766;SDS011;7475;53.558;9.970;2024-02-28T09:22:53;20.25;;;18.17;;
14766;SDS011;7475;53.558;9.970;2024-02-28T09:25:18;22.83;;;19.23;;
14766;SDS011;7475;53.558;9.970;2024-02-28T09:27:46;20.55;;;18.35;;
14766;SDS011;7475;53.558;9.970;2024-02-28T09:30:12;21.15;;;18.92;;
14766;SDS011;7475;53.558;9.970;2024-02-28T09:32:37;21.13;;;18.35;;
14766;SDS011;7475;53.558;9.970;2024-02-28T09:35:05;21.35;;;18.45;;
14766;SDS011;7475;53.558;9.970;2024-02-28T09:37:32;19.65;;;17.55;;
14766;SDS011;7475;53.558;9.970;2024-02-28T09:39:57;19.33;;;17.30;;
14766;SDS011;7475;53.558;9.970;2024-02-28T09:42:22;19.27;;;17.27;;
14766;SDS011;7475;53.558;9.970;2024-02-28T09:44:48;18.77;;;16.75;;
14766;SDS011;7475;53.558;9.970;2024-02-28T09:47:14;19.15;;;16.40;;
14766;SDS011;7475;53.558;9.970;2024-02-28T09:49:39;19.02;;;16.33;;
14766;SDS011;7475;53.558;9.970;2024-02-28T09:52:07;20.90;;;17.45;;
14766;SDS011;7475;53.558;9.970;2024-02-28T09:54:32;19.73;;;16.73;;
14766;SDS011;7475;53.558;9.970;2024-02-28T09:56:57;18.05;;;16.10;;
14766;SDS011;7475;53.558;9.970;2024-02-28T09:59:23;18.75;;;16.15;;
14766;SDS011;7475;53.558;9.970;2024-02-28T10:01:56;18.75;;;16.63;;
14766;SDS011;7475;53.558;9.970;2024-02-28T10:04:25;17.73;;;15.38;;
14766;SDS011;7475;53.558;9.970;2024-02-28T10:06:52;16.75;;;14.55;;
14766;SDS011;7475;53.558;9.970;2024-02-28T10:09:18;17.52;;;15.45;;
14766;SDS011;7475;53.558;9.970;2024-02-28T10:11:43;16.60;;;14.80;;
14766;SDS011;7475;53.558;9.970;2024-02-28T10:14:09;18.42;;;16.02;;
14766;SDS011;7475;53.558;9.970;2024-02-28T10:16:35;20.42;;;16.20;;
14766;SDS011;7475;53.558;9.970;2024-02-28T10:19:01;18.40;;;15.23;;
14766;SDS011;7475;53.558;9.970;2024-02-28T10:21:29;21.92;;;17.25;;
14766;SDS011;7475;53.558;9.970;2024-02-28T10:23:58;18.70;;;16.70;;
14766;SDS011;7475;53.558;9.970;2024-02-28T10:26:23;19.38;;;16.35;;
14766;SDS011;7475;53.558;9.970;2024-02-28T10:28:49;20.13;;;15.80;;
14766;SDS011;7475;53.558;9.970;2024-02-28T10:31:16;18.17;;;16.00;;
14766;SDS011;7475;53.558;9.970;2024-02-28T10:33:41;18.77;;;16.08;;
14766;SDS011;7475;53.558;9.970;2024-02-28T10:36:07;23.35;;;16.90;;
14766;SDS011;7475;53.558;9.970;2024-02-28T10:38:32;18.92;;;15.15;;
14766;SDS011;7475;53.558;9.970;2024-02-28T10:40:59;20.73;;;16.20;;
14766;SDS011;7475;53.558;9.970;2024-02-28T10:43:25;18.90;;;16.52;;
14766;SDS011;7475;53.558;9.970;2024-02-28T10:45:53;19.73;;;16.15;;
14766;SDS011;7475;53.558;9.970;2024-02-28T10:48:22;22.45;;;17.17;;
14766;SDS011;7475;53.558;9.970;2024-02-28T10:50:49;20.40;;;16.98;;
14766;SDS011;7475;53.558;9.970;2024-02-28T10:53:16;22.95;;;17.48;;
14766;SDS011;7475;53.558;9.970;2024-02-28T10:55:47;20.30;;;15.43;;
14766;SDS011;7475;53.558;9.970;2024-02-28T10:58:14;18.10;;;15.85;;
14766;SDS011;7475;53.558;9.970;2024-02-28T11:00:40;16.58;;;13.98;;
14766;SDS011;7475;53.558;9.970;2024-02-28T11:03:08;19.17;;;13.18;;
14766;SDS011;7475;53.558;9.970;2024-02-28T11:05:36;17.05;;;14.95;;
14766;SDS011;7475;53.558;9.970;2024-02-28T11:08:08;18.48;;;14.20;;
14766;SDS011;7475;53.558;9.970;2024-02-28T11:10:42;16.50;;;13.20;;
14766;SDS011;7475;53.558;9.970;2024-02-28T11:13:09;16.40;;;13.15;;
14766;SDS011;7475;53.558;9.970;2024-02-28T11:15:36;18.73;;;14.77;;
14766;SDS011;7475;53.558;9.970;2024-02-28T11:18:08;16.83;;;13.98;;
14766;SDS011;7475;53.558;9.970;2024-02-28T11:20:36;18.02;;;14.57;;
14766;SDS011;7475;53.558;9.970;2024-02-28T11:23:02;17.45;;;14.15;;
14766;SDS011;7475;53.558;9.970;2024-02-28T11:25:27;16.38;;;13.48;;
14766;SDS011;7475;53.558;9.970;2024-02-28T11:27:53;20.40;;;15.65;;
14766;SDS011;7475;53.558;9.970;2024-02-28T11:30:18;16.02;;;13.68;;
14766;SDS011;7475;53.558;9.970;2024-02-28T11:32:44;19.30;;;13.77;;
14766;SDS011;7475;53.558;9.970;2024-02-28T11:35:09;18.80;;;14.05;;
14766;SDS011;7475;53.558;9.970;2024-02-28T11:37:37;16.63;;;13.45;;
14766;SDS011;7475;53.558;9.970;2024-02-28T11:40:06;19.02;;;16.00;;
14766;SDS011;7475;53.558;9.970;2024-02-28T11:42:33;17.17;;;15.02;;
14766;SDS011;7475;53.558;9.970;2024-02-28T11:44:59;19.27;;;14.63;;
14766;SDS011;7475;53.558;9.970;2024-02-28T11:47:25;24.45;;;18.80;;
14766;SDS011;7475;53.558;9.970;2024-02-28T11:49:50;19.90;;;14.90;;
14766;SDS011;7475;53.558;9.970;2024-02-28T11:52:16;18.33;;;14.80;;
14766;SDS011;7475;53.558;9.970;2024-02-28T11:54:41;20.48;;;15.35;;
14766;SDS011;7475;53.558;9.970;2024-02-28T11:57:10;19.42;;;14.15;;
14766;SDS011;7475;53.558;9.970;2024-02-28T11:59:39;17.35;;;13.52;;
14766;SDS011;7475;53.558;9.970;2024-02-28T12:02:11;19.10;;;14.57;;
14766;SDS011;7475;53.558;9.970;2024-02-28T12:04:41;22.27;;;16.30;;
14766;SDS011;7475;53.558;9.970;2024-02-28T12:07:07;19.08;;;15.02;;
14766;SDS011;7475;53.558;9.970;2024-02-28T12:09:34;18.08;;;14.90;;
14766;SDS011;7475;53.558;9.970;2024-02-28T12:12:02;19.20;;;15.50;;
14766;SDS011;7475;53.558;9.970;2024-02-28T12:14:31;19.60;;;15.45;;
14766;SDS011;7475;53.558;9.970;2024-02-28T12:16:58;22.40;;;15.63;;
14766;SDS011;7475;53.558;9.970;2024-02-28T12:19:23;19.33;;;14.65;;
14766;SDS011;7475;53.558;9.970;2024-02-28T12:21:49;18.90;;;14.95;;
14766;SDS011;7475;53.558;9.970;2024-02-28T12:24:14;20.08;;;14.95;;
14766;SDS011;7475;53.558;9.970;2024-02-28T12:26:39;19.50;;;14.63;;
14766;SDS011;7475;53.558;9.970;2024-02-28T12:29:05;24.33;;;15.75;;
14766;SDS011;7475;53.558;9.970;2024-02-28T12:31:31;19.48;;;15.38;;
14766;SDS011;7475;53.558;9.970;2024-02-28T12:33:57;21.67;;;15.65;;
14766;SDS011;7475;53.558;9.970;2024-02-28T12:36:22;21.98;;;15.60;;
14766;SDS011;7475;53.558;9.970;2024-02-28T12:38:48;17.48;;;14.10;;
14766;SDS011;7475;53.558;9.970;2024-02-28T12:41:13;19.05;;;14.15;;
14766;SDS011;7475;53.558;9.970;2024-02-28T12:43:39;18.33;;;14.07;;
14766;SDS011;7475;53.558;9.970;2024-02-28T12:46:05;20.05;;;13.98;;
14766;SDS011;7475;53.558;9.970;2024-02-28T12:48:36;18.98;;;13.80;;
14766;SDS011;7475;53.558;9.970;2024-02-28T12:51:02;19.40;;;14.75;;
14766;SDS011;7475;53.558;9.970;2024-02-28T12:53:30;16.35;;;13.20;;
14766;SDS011;7475;53.558;9.970;2024-02-28T12:55:55;17.98;;;13.70;;
14766;SDS011;7475;53.558;9.970;2024-02-28T12:58:20;18.90;;;14.05;;
14766;SDS011;7475;53.558;9.970;2024-02-28T13:00:46;16.92;;;13.15;;
14766;SDS011;7475;53.558;9.970;2024-02-28T13:03:11;17.75;;;13.38;;
14766;SDS011;7475;53.558;9.970;2024-02-28T13:05:36;18.27;;;13.75;;
14766;SDS011;7475;53.558;9.970;2024-02-28T13:08:02;19.10;;;13.27;;
14766;SDS011;7475;53.558;9.970;2024-02-28T13:10:28;16.40;;;12.73;;
14766;SDS011;7475;53.558;9.970;2024-02-28T13:12:54;19.13;;;14.25;;
14766;SDS011;7475;53.558;9.970;2024-02-28T13:15:19;16.73;;;12.30;;
14766;SDS011;7475;53.558;9.970;2024-02-28T13:17:45;16.25;;;12.35;;
14766;SDS011;7475;53.558;9.970;2024-02-28T13:20:14;17.60;;;12.68;;
14766;SDS011;7475;53.558;9.970;2024-02-28T13:22:39;15.90;;;12.65;;
14766;SDS011;7475;53.558;9.970;2024-02-28T13:25:05;16.48;;;13.05;;
14766;SDS011;7475;53.558;9.970;2024-02-28T13:27:30;15.27;;;12.00;;
14766;SDS011;7475;53.558;9.970;2024-02-28T13:29:55;19.73;;;12.85;;
14766;SDS011;7475;53.558;9.970;2024-02-28T13:32:21;18.77;;;12.25;;
14766;SDS011;7475;53.558;9.970;2024-02-28T13:34:46;16.85;;;11.93;;
14766;SDS011;7475;53.558;9.970;2024-02-28T13:37:11;16.77;;;12.90;;
14766;SDS011;7475;53.558;9.970;2024-02-28T13:39:37;17.67;;;12.63;;
14766;SDS011;7475;53.558;9.970;2024-02-28T13:42:02;17.48;;;12.30;;
14766;SDS011;7475;53.558;9.970;2024-02-28T13:44:31;14.52;;;10.45;;
14766;SDS011;7475;53.558;9.970;2024-02-28T13:46:56;14.88;;;10.98;;
14766;SDS011;7475;53.558;9.970;2024-02-28T13:49:22;15.52;;;11.63;;
14766;SDS011;7475;53.558;9.970;2024-02-28T13:51:47;15.98;;;11.60;;
14766;SDS011;7475;53.558;9.970;2024-02-28T13:54:14;15.20;;;11.70;;
14766;SDS011;7475;53.558;9.970;2024-02-28T13:56:40;15.13;;;11.68;;
14766;SDS011;7475;53.558;9.970;2024-02-28T13:59:05;16.65;;;11.73;;
14766;SDS011;7475;53.558;9.970;2024-02-28T14:01:31;18.00;;;12.13;;
14766;SDS011;7475;53.558;9.970;2024-02-28T14:03:57;16.65;;;11.55;;
14766;SDS011;7475;53.558;9.970;2024-02-28T14:06:22;14.68;;;11.15;;
14766;SDS011;7475;53.558;9.970;2024-02-28T14:08:47;19.67;;;12.18;;
14766;SDS011;7475;53.558;9.970;2024-02-28T14:11:12;17.02;;;11.75;;
14766;SDS011;7475;53.558;9.970;2024-02-28T14:13:40;14.70;;;11.38;;
14766;SDS011;7475;53.558;9.970;2024-02-28T14:16:06;18.83;;;12.35;;
14766;SDS011;7475;53.558;9.970;2024-02-28T14:18:31;14.18;;;10.95;;
14766;SDS011;7475;53.558;9.970;2024-02-28T14:20:57;15.52;;;11.05;;
14766;SDS011;7475;53.558;9.970;2024-02-28T14:23:23;16.40;;;10.85;;
14766;SDS011;7475;53.558;9.970;2024-02-28T14:25:48;15.70;;;10.82;;